createdAt,value
2023-03-23T15:59:41.167Z,13.80
2023-03-23T16:02:43.720Z,13.70
2023-03-23T16:05:45.931Z,13.60
2023-03-23T16:08:54.336Z,13.60
2023-03-23T16:11:56.658Z,13.60
2023-03-23T16:14:58.322Z,13.60
2023-03-23T16:18:00.322Z,13.60
2023-03-23T16:21:03.727Z,13.60
2023-03-23T16:24:05.984Z,13.50
2023-03-23T16:27:13.689Z,13.60
2023-03-23T16:30:15.835Z,13.50
2023-03-23T16:33:17.557Z,13.50
2023-03-23T16:36:19.297Z,13.40
2023-03-23T16:39:21.244Z,13.40
2023-03-23T16:42:22.961Z,13.40
2023-03-23T16:45:26.514Z,13.30
2023-03-23T16:48:28.416Z,13.30
2023-03-23T16:51:30.371Z,13.30
2023-03-23T16:54:32.086Z,13.30
2023-03-23T16:57:35.880Z,13.30
2023-03-23T17:00:38.747Z,13.20
2023-03-23T17:03:42.637Z,13.30
2023-03-23T17:06:46.690Z,13.20
2023-03-23T17:09:48.401Z,13.20
2023-03-23T17:12:50.113Z,13.20
2023-03-23T17:15:53.849Z,13.20
2023-03-23T17:18:55.723Z,13.20
2023-03-23T17:21:57.565Z,13.10
2023-03-23T17:24:59.395Z,13.10
2023-03-23T17:28:05.374Z,13.10
2023-03-23T17:31:07.982Z,13.10
2023-03-23T17:34:09.813Z,13.00
2023-03-23T17:37:11.889Z,13.00
2023-03-23T17:40:14.197Z,13.00
2023-03-23T17:43:16.072Z,13.00
2023-03-23T17:46:18.235Z,13.00
2023-03-23T17:49:19.938Z,13.00
2023-03-23T17:52:22.135Z,13.00
2023-03-23T17:55:23.848Z,13.00
2023-03-23T17:58:26.931Z,13.00
2023-03-23T18:01:28.713Z,12.90
2023-03-23T18:04:30.536Z,12.90
2023-03-23T18:07:32.301Z,12.90
2023-03-23T18:10:36.491Z,12.90
2023-03-23T18:13:38.914Z,12.90
2023-03-23T18:16:41.174Z,12.80
2023-03-23T18:19:44.755Z,12.90
2023-03-23T18:22:46.430Z,12.90
2023-03-23T18:25:48.852Z,12.90
2023-03-23T18:28:52.029Z,12.80
2023-03-23T18:31:53.771Z,12.80
2023-03-23T18:34:56.044Z,12.80
2023-03-23T18:37:57.673Z,12.80
2023-03-23T18:40:59.392Z,12.80
2023-03-23T18:44:01.105Z,12.80
2023-03-23T18:47:03.970Z,12.70
2023-03-23T18:50:07.321Z,12.70
2023-03-23T18:53:08.957Z,12.70
2023-03-23T18:56:18.790Z,12.70
2023-03-23T18:59:23.901Z,12.60
2023-03-23T19:02:25.824Z,12.60
2023-03-23T19:05:28.384Z,12.60
2023-03-23T19:08:31.097Z,12.60
2023-03-23T19:11:32.840Z,12.50
2023-03-23T19:14:35.823Z,12.40
2023-03-23T19:17:37.904Z,12.40
2023-03-23T19:21:09.544Z,12.40
2023-03-23T19:24:03.569Z,12.30
2023-03-23T19:27:05.952Z,12.30
2023-03-23T19:30:08.434Z,12.20
2023-03-23T19:33:10.239Z,12.20
2023-03-23T19:36:13.372Z,12.20
2023-03-23T19:39:15.339Z,12.10
2023-03-23T19:42:18.462Z,12.10
2023-03-23T19:45:20.359Z,12.10
2023-03-23T19:48:22.138Z,12.00
2023-03-23T19:51:24.102Z,12.00
2023-03-23T19:54:25.809Z,12.00
2023-03-23T19:57:27.752Z,12.00
2023-03-23T20:00:29.616Z,12.10
2023-03-23T20:03:31.302Z,12.00
2023-03-23T20:06:33.807Z,11.90
2023-03-23T20:09:37.509Z,11.90
2023-03-23T20:12:39.897Z,11.90
2023-03-23T20:15:41.582Z,11.90
2023-03-23T20:18:44.748Z,11.90
2023-03-23T20:21:46.524Z,11.80
2023-03-23T20:24:49.407Z,11.90
2023-03-23T20:27:51.190Z,11.80
2023-03-23T20:31:16.873Z,11.80
2023-03-23T20:34:30.980Z,11.70
2023-03-23T20:37:34.507Z,11.70
2023-03-23T20:40:36.200Z,11.60
2023-03-23T20:43:42.335Z,11.50
2023-03-23T20:46:45.780Z,11.50
2023-03-23T20:49:52.640Z,11.40
2023-03-23T20:52:55.164Z,11.40
2023-03-23T20:55:59.308Z,11.40
2023-03-23T20:59:01.630Z,11.40
2023-03-23T21:02:05.449Z,11.40
2023-03-23T21:05:07.200Z,11.30
2023-03-23T21:08:11.442Z,11.30
2023-03-23T21:11:18.209Z,11.30
2023-03-23T21:14:19.985Z,11.30
2023-03-23T21:17:21.754Z,11.20
2023-03-23T21:20:26.547Z,11.20
2023-03-23T21:23:29.662Z,11.20
2023-03-23T21:26:31.664Z,11.20
2023-03-23T21:29:33.328Z,11.20
2023-03-23T21:32:35.234Z,11.20
2023-03-23T21:35:36.934Z,11.20
2023-03-23T21:38:39.854Z,11.20
2023-03-23T21:41:42.692Z,11.30
2023-03-23T21:44:44.665Z,11.30
2023-03-23T21:47:47.459Z,11.30
2023-03-23T21:50:49.754Z,11.30
2023-03-23T21:53:54.193Z,11.30
2023-03-23T21:56:59.869Z,11.30
2023-03-23T22:00:01.678Z,11.30
2023-03-23T22:03:04.700Z,11.30
2023-03-23T22:06:13.642Z,11.30
2023-03-23T22:09:15.713Z,11.30
2023-03-23T22:12:18.803Z,11.30
2023-03-23T22:15:27.566Z,11.30
2023-03-23T22:18:29.853Z,11.30
2023-03-23T22:21:31.692Z,11.40
2023-03-23T22:24:33.536Z,11.30
2023-03-23T22:27:35.488Z,11.30
2023-03-23T22:30:37.307Z,11.30
2023-03-23T22:33:39.989Z,11.30
2023-03-23T22:36:42.112Z,11.20
2023-03-23T22:39:44.383Z,11.20
2023-03-23T22:42:46.773Z,11.20
2023-03-23T22:45:53.291Z,11.10
2023-03-23T22:48:55.314Z,11.10
2023-03-23T22:51:57.093Z,11.10
2023-03-23T22:54:58.828Z,11.00
2023-03-23T22:58:00.628Z,11.10
2023-03-23T23:01:06.155Z,11.00
2023-03-23T23:04:08.117Z,11.00
2023-03-23T23:07:14.237Z,11.00
2023-03-23T23:10:16.282Z,11.00
2023-03-23T23:13:18.511Z,11.00
2023-03-23T23:16:22.202Z,11.10
2023-03-23T23:19:24.215Z,11.10
2023-03-23T23:22:33.752Z,11.20
2023-03-23T23:25:36.456Z,11.20
2023-03-23T23:28:38.626Z,11.30
2023-03-23T23:31:40.404Z,11.30
2023-03-23T23:34:42.193Z,11.40
2023-03-23T23:37:44.007Z,11.40
2023-03-23T23:40:47.185Z,11.40
2023-03-23T23:43:49.214Z,11.40
2023-03-23T23:46:50.940Z,11.40
2023-03-23T23:49:52.672Z,11.40
2023-03-23T23:52:54.644Z,11.50
2023-03-23T23:55:56.362Z,11.60
2023-03-23T23:58:58.715Z,11.50
